createdAt,value
2023-02-11T11:02:11.839Z,80.55
2023-02-11T11:03:11.571Z,80.16
2023-02-11T11:04:11.838Z,80.16
2023-02-11T11:05:11.327Z,80.55
2023-02-11T11:06:11.807Z,80.55
2023-02-11T11:07:11.490Z,80.74
2023-02-11T11:08:11.201Z,81.12
2023-02-11T11:09:11.509Z,80.55
2023-02-11T11:10:11.226Z,81.21
2023-02-11T11:11:11.331Z,81.02
2023-02-11T11:12:11.872Z,80.35
2023-02-11T11:13:11.019Z,81.3
2023-02-11T11:14:12.080Z,80.35
2023-02-11T11:15:11.922Z,81.02
2023-02-11T11:16:11.653Z,80.26
2023-02-11T11:17:12.933Z,80.55
2023-02-11T11:18:23.928Z,80.16
2023-02-11T11:19:11.500Z,80.55
2023-02-11T11:20:11.697Z,80.35
2023-02-11T11:21:11.171Z,80.35
2023-02-11T11:22:11.048Z,80.55
2023-02-11T11:23:13.316Z,80.64
2023-02-11T11:24:11.493Z,81.02
2023-02-11T11:25:13.128Z,80.93
2023-02-11T11:26:11.595Z,80.93
2023-02-11T11:27:11.145Z,81.02
2023-02-11T11:28:11.731Z,80.26
2023-02-11T11:29:11.363Z,80.74
2023-02-11T11:30:11.981Z,80.07
2023-02-11T11:31:11.668Z,80.45
2023-02-11T11:32:11.656Z,80.35
2023-02-11T11:33:12.152Z,80.55
2023-02-11T11:34:11.514Z,80.16
2023-02-11T11:35:11.466Z,80.16
2023-02-11T11:36:12.132Z,80.11
2023-02-11T11:37:11.639Z,80.58
2023-02-11T11:38:12.346Z,80.02
2023-02-11T11:39:11.486Z,79.73
2023-02-11T11:40:12.388Z,80.3
2023-02-11T11:41:12.606Z,80.3
2023-02-11T11:42:12.625Z,80.49
2023-02-11T11:43:11.206Z,80.49
2023-02-11T11:44:12.254Z,80.4
2023-02-11T11:45:11.493Z,80.3
2023-02-11T11:46:12.435Z,80.58
2023-02-11T11:47:11.863Z,80.77
2023-02-11T11:48:11.852Z,80.4
2023-02-11T11:49:13.014Z,80.3
2023-02-11T11:50:13.052Z,80.3
2023-02-11T11:51:12.028Z,80.68
2023-02-11T11:52:11.356Z,80.68
2023-02-11T11:53:11.931Z,80.4
2023-02-11T11:54:12.111Z,80.58
2023-02-11T11:55:11.945Z,80.49
2023-02-11T11:56:11.616Z,80.77
2023-02-11T11:57:12.403Z,80.3
2023-02-11T11:58:11.612Z,80.3
2023-02-11T11:59:11.691Z,80.58
2023-02-11T12:00:11.446Z,80.55
2023-02-11T12:01:11.771Z,81.16
2023-02-11T12:02:12.061Z,80.96
2023-02-11T12:03:12.211Z,80.96
2023-02-11T12:04:11.707Z,80.87
2023-02-11T12:05:12.720Z,80.87
2023-02-11T12:06:11.713Z,81.25
2023-02-11T12:07:12.755Z,80.4
2023-02-11T12:08:11.710Z,80.58
2023-02-11T12:09:11.695Z,80.35
2023-02-11T12:10:11.712Z,80.68
2023-02-11T12:11:11.944Z,80.64
2023-02-11T12:12:11.991Z,81.44
2023-02-11T12:13:12.191Z,81.87
2023-02-11T12:14:11.926Z,81.25
2023-02-11T12:15:13.212Z,81.21
2023-02-11T12:16:14.165Z,81.44
2023-02-11T12:17:11.712Z,81.06
2023-02-11T12:18:13.343Z,80.49
2023-02-11T12:19:12.312Z,80.4
2023-02-11T12:20:11.591Z,80.3
2023-02-11T12:21:12.369Z,80.4
2023-02-11T12:22:11.988Z,80.3
2023-02-11T12:23:12.808Z,80.4
2023-02-11T12:24:11.838Z,80.4
2023-02-11T12:25:12.256Z,80.49
2023-02-11T12:26:14.455Z,80.49
2023-02-11T12:27:11.911Z,80.21
2023-02-11T12:28:12.101Z,80.4
2023-02-11T12:29:12.238Z,80.58
2023-02-11T12:30:12.007Z,80.49
2023-02-11T12:31:14.345Z,80.3
2023-02-11T12:32:12.367Z,80.74
2023-02-11T12:33:12.165Z,80.77
2023-02-11T12:34:11.963Z,80.74
2023-02-11T12:35:12.400Z,80.93
2023-02-11T12:36:11.952Z,80.83
2023-02-11T12:37:12.299Z,81.3
2023-02-11T12:38:12.200Z,81.44
2023-02-11T12:39:12.259Z,81.3
2023-02-11T12:40:12.695Z,81.4
2023-02-11T12:41:11.661Z,81.68
2023-02-11T12:42:12.014Z,81.59
2023-02-11T12:43:11.679Z,81.78
2023-02-11T12:44:12.092Z,81.87
2023-02-11T12:45:12.238Z,81.49
2023-02-11T12:46:12.320Z,81.59
2023-02-11T12:47:11.960Z,81.78
2023-02-11T12:48:12.447Z,82.16
2023-02-11T12:49:12.171Z,82.54
2023-02-11T12:50:12.113Z,82.26
2023-02-11T12:51:12.246Z,82.35
2023-02-11T12:52:11.798Z,82.07
2023-02-11T12:53:11.738Z,82.35
2023-02-11T12:54:13.467Z,82.07
2023-02-11T12:55:12.188Z,82.07
2023-02-11T12:56:11.757Z,82.16
2023-02-11T12:57:11.779Z,82.16
2023-02-11T12:58:12.137Z,82.16
2023-02-11T12:59:15.104Z,82.35
2023-02-11T13:00:11.858Z,82.35
2023-02-11T13:01:12.805Z,82.16
2023-02-11T13:02:12.537Z,82.16
2023-02-11T13:03:12.625Z,82.16
2023-02-11T13:04:12.666Z,81.97
2023-02-11T13:05:16.633Z,82.73
2023-02-11T13:06:12.188Z,82.82
2023-02-11T13:07:13.214Z,83.11
2023-02-11T13:08:12.193Z,82.82
2023-02-11T13:09:12.176Z,82.92
2023-02-11T13:10:12.516Z,83.68
2023-02-11T13:11:14.524Z,83.3
2023-02-11T13:12:12.181Z,83.01
2023-02-11T13:13:12.958Z,83.11
2023-02-11T13:14:12.154Z,83.49
2023-02-11T13:15:12.675Z,83.01
2023-02-11T13:16:12.894Z,83.68
2023-02-11T13:17:11.911Z,83.59
2023-02-11T13:18:14.314Z,83.11
2023-02-11T13:19:12.218Z,83.49
2023-02-11T13:20:12.545Z,83.2
2023-02-11T13:21:12.273Z,83.3
2023-02-11T13:22:12.366Z,83.11
2023-02-11T13:23:12.569Z,84.06
2023-02-11T13:24:12.831Z,84.34
2023-02-11T13:25:12.890Z,84.34
2023-02-11T13:26:12.950Z,84.91
2023-02-11T13:27:12.051Z,84.63
2023-02-11T13:28:12.476Z,84.63
2023-02-11T13:29:12.517Z,84.63
2023-02-11T13:30:12.545Z,84.82
2023-02-11T13:31:13.302Z,84.53
2023-02-11T13:32:13.566Z,85.01
2023-02-11T13:33:12.302Z,85.2
2023-02-11T13:34:12.808Z,85.58
2023-02-11T13:35:12.040Z,85.3
2023-02-11T13:36:12.413Z,85.49
2023-02-11T13:37:12.338Z,85.2
2023-02-11T13:38:13.987Z,85.49
2023-02-11T13:39:12.134Z,85.01
2023-02-11T13:40:12.484Z,84.82
2023-02-11T13:41:12.346Z,85.2
2023-02-11T13:42:13.083Z,85.39
2023-02-11T13:43:12.344Z,85.3
2023-02-11T13:44:13.781Z,85.58
2023-02-11T13:45:13.473Z,85.3
2023-02-11T13:46:13.696Z,85.3
2023-02-11T13:47:12.853Z,85.3
2023-02-11T13:48:12.369Z,85.77
2023-02-11T13:49:12.846Z,85.77
2023-02-11T13:50:12.721Z,85.58
2023-02-11T13:51:12.437Z,85.39
2023-02-11T13:52:12.457Z,85.77
2023-02-11T13:53:14.486Z,85.77
2023-02-11T13:54:12.418Z,85.58
2023-02-11T13:55:12.730Z,85.68
2023-02-11T13:56:12.457Z,86.15
2023-02-11T13:57:12.461Z,85.68
2023-02-11T13:58:12.686Z,85.68
2023-02-11T13:59:12.361Z,86.15
2023-02-11T14:00:12.452Z,85.58
2023-02-11T14:01:12.563Z,86.24
2023-02-11T14:02:12.749Z,85.86
2023-02-11T14:03:12.952Z,86.34
2023-02-11T14:04:12.505Z,85.68
2023-02-11T14:05:12.793Z,85.77
2023-02-11T14:06:12.788Z,86.34
2023-02-11T14:07:12.496Z,86.34
2023-02-11T14:08:12.256Z,86.34
2023-02-11T14:09:12.560Z,85.86
2023-02-11T14:10:12.616Z,85.96
2023-02-11T14:11:12.533Z,85.77
2023-02-11T14:12:12.885Z,85.77
2023-02-11T14:13:13.273Z,85.58
2023-02-11T14:14:13.206Z,86.05
2023-02-11T14:15:12.430Z,86.34
2023-02-11T14:16:12.418Z,85.96
2023-02-11T14:17:12.854Z,86.34
2023-02-11T14:18:12.670Z,86.05
2023-02-11T14:19:13.812Z,86.05
2023-02-11T14:20:12.646Z,85.96
2023-02-11T14:21:12.514Z,86.05
2023-02-11T14:22:12.442Z,86.34
2023-02-11T14:23:12.623Z,85.58
2023-02-11T14:24:12.376Z,85.77
2023-02-11T14:25:12.637Z,85.86
2023-02-11T14:26:12.657Z,85.96
2023-02-11T14:27:12.803Z,86.34
2023-02-11T14:28:13.023Z,86.24
2023-02-11T14:29:12.949Z,85.77
2023-02-11T14:30:12.727Z,85.68
2023-02-11T14:31:12.897Z,86.24
2023-02-11T14:32:12.864Z,86.24
2023-02-11T14:33:12.685Z,86.34
2023-02-11T14:34:12.708Z,86.43
2023-02-11T14:35:12.691Z,86.15
2023-02-11T14:36:13.063Z,86.91
2023-02-11T14:37:12.717Z,86.24
2023-02-11T14:38:12.710Z,86.72
2023-02-11T14:39:13.143Z,86.53
2023-02-11T14:40:12.672Z,87.01
2023-02-11T14:41:14.611Z,87.1
2023-02-11T14:42:12.978Z,86.82
2023-02-11T14:43:13.130Z,87.19
2023-02-11T14:44:13.234Z,87.1
2023-02-11T14:45:12.764Z,87.19
2023-02-11T14:46:12.987Z,86.91
2023-02-11T14:47:12.528Z,86.91
2023-02-11T14:48:12.789Z,86.72
2023-02-11T14:49:13.266Z,86.72
2023-02-11T14:50:13.343Z,87.38
2023-02-11T14:51:13.428Z,87.76
2023-02-11T14:52:13.270Z,87.29
2023-02-11T14:53:13.305Z,87.57
2023-02-11T14:54:13.972Z,87.57
2023-02-11T14:55:12.586Z,87.67
